This is the latest recevied weather packets stored in our database for station/object W3JGB. If no packets are shown the sender has not sent any weather packets the latest 10 day(s).
| Time | Temp. | Humidity | Pressure | Rain* | Wind** | Luminosity | Snow |
|---|---|---|---|---|---|---|---|
| 1777903873 | 17.22° C | 45% | 1011.2 hPa | 0 mm | - | 540 W/m² | - |
| 1777903570 | 17.22° C | 44% | 1011.1 hPa | 0 mm | - | 168 W/m² | - |
| 1777903265 | 17.22° C | 42% | 1011.5 hPa | 0 mm | - | 279 W/m² | - |
| 1777902962 | 16.67° C | 42% | 1011.4 hPa | 0 mm | - | 312 W/m² | - |
| 1777902659 | 17.22° C | 42% | 1011.3 hPa | 0 mm | - | 312 W/m² | - |
| 1777902356 | 16.67° C | 44% | 1011.1 hPa | 0 mm | - | 484 W/m² | - |
| 1777902053 | 16.11° C | 43% | 1011.2 hPa | 0 mm | - | 561 W/m² | - |
| 1777901752 | 16.67° C | 43% | 1011.5 hPa | 0 mm | - | 419 W/m² | - |
| 1777901448 | 16.67° C | 42% | 1011.4 hPa | 0 mm | - | 466 W/m² | - |
| 1777901146 | 16.11° C | 44% | 1011.5 hPa | 0 mm | - | 435 W/m² | - |
| 1777900844 | 15.56° C | 46% | 1011.4 hPa | 0 mm | - | 487 W/m² | - |
| 1777900541 | 16.11° C | 42% | 1011.4 hPa | 0 mm | - | 429 W/m² | - |
| 1777900238 | 16.11° C | 42% | 1011.5 hPa | 0 mm | - | 335 W/m² | - |
| 1777899934 | 15.56° C | 46% | 1011.7 hPa | 0 mm | - | 350 W/m² | - |
| 1777899631 | 15.56° C | 47% | 1011.5 hPa | 0 mm | - | 296 W/m² | - |
| 1777899328 | 15.56° C | 44% | 1011.7 hPa | 0 mm | - | 319 W/m² | - |
| 1777899026 | 15° C | 48% | 1011.8 hPa | 0 mm | - | 284 W/m² | - |
| 1777898723 | 15° C | 46% | 1011.9 hPa | 0 mm | - | 316 W/m² | - |
| 1777898420 | 14.44° C | 48% | 1011.7 hPa | 0 mm | - | 284 W/m² | - |
| 1777898118 | 14.44° C | 49% | 1011.8 hPa | 0 mm | - | 282 W/m² | - |
| 1777897814 | 13.89° C | 52% | 1011.9 hPa | 0 mm | - | 228 W/m² | - |
| 1777897510 | 12.78° C | 56% | 1012.1 hPa | 0 mm | - | 214 W/m² | - |
| 1777897206 | 12.22° C | 66% | 1011.9 hPa | 0 mm | - | 192 W/m² | - |
| 1777896902 | 10.56° C | 79% | 1011.8 hPa | 0 mm | - | 94 W/m² | - |
| 1777896600 | 10° C | 77% | 1012.1 hPa | 0 mm | - | 99 W/m² | - |
* Rain latest hour (hover to see other rain measurements)
** Current wind speed in m/s (hover to see current wind gust speed)